Time;durP1;ratioP1;P1;durP2;ratioP2;P2;SDS_P1;SDS_P2;PMS_P1;PMS_P2;Temp;Humidity;BMP_temperature;BMP_pressure;BME280_temperature;BME280_humidity;BME280_pressure;Samples;Min_cycle;Max_cycle;Signal;HPM_P1;HPM_P2
2022/11/14 00:01:27;;;;;;;39.70;20.50;;;;;;;3.81;88.90;99708.09;420572;1301;108554;-40
2022/11/14 00:11:34;;;;;;;36.50;20.60;;;;;;;3.63;89.46;99705.10;420579;1301;97915;-40
2022/11/14 00:21:45;;;;;;;34.60;18.40;;;;;;;3.61;89.80;99704.34;420506;1291;110494;-41
2022/11/14 00:31:52;;;;;;;35.20;18.90;;;;;;;3.56;90.03;99706.31;420487;1292;109213;-41
2022/11/14 00:41:58;;;;;;;42.50;22.10;;;;;;;3.63;89.87;99694.15;420611;1294;97890;-41
2022/11/14 00:52:04;;;;;;;46.50;23.30;;;;;;;3.66;90.10;99689.09;420484;1297;107409;-41
2022/11/14 01:02:11;;;;;;;40.20;21.00;;;;;;;3.71;90.09;99678.50;420302;1301;97879;-40
2022/11/14 01:12:18;;;;;;;38.50;21.60;;;;;;;3.69;90.01;99670.27;420308;1301;108459;-41
2022/11/14 01:22:25;;;;;;;37.00;21.00;;;;;;;3.64;90.23;99670.55;420392;1308;110540;-40
2022/11/14 01:32:32;;;;;;;42.00;22.20;;;;;;;3.61;90.43;99671.83;420227;1306;97801;-40
2022/11/14 01:42:39;;;;;;;39.00;22.20;;;;;;;3.62;90.32;99671.27;420445;1302;107188;-42
2022/11/14 01:52:46;;;;;;;39.90;22.60;;;;;;;3.61;90.29;99665.09;420388;1301;97899;-40
2022/11/14 02:13:35;;;;;;;30.20;16.60;;;;;;;3.44;90.26;99661.63;420144;1301;107864;-41
2022/11/14 02:23:43;;;;;;;32.80;16.40;;;;;;;3.39;90.23;99650.64;420026;1287;97086;-40
2022/11/14 02:33:50;;;;;;;26.90;15.10;;;;;;;3.35;90.59;99644.98;419849;1301;107229;-40
2022/11/14 02:43:57;;;;;;;28.60;15.20;;;;;;;3.30;90.85;99639.46;419945;1299;97927;-40
2022/11/14 02:54:04;;;;;;;24.20;13.50;;;;;;;3.37;90.99;99629.00;419836;1294;112862;-41
2022/11/14 03:04:11;;;;;;;24.30;13.10;;;;;;;3.44;91.05;99607.41;419942;1301;108622;-40
2022/11/14 03:14:18;;;;;;;30.60;15.00;;;;;;;3.52;91.38;99599.19;420218;1301;97937;-42
2022/11/14 03:24:26;;;;;;;34.20;17.70;;;;;;;3.63;91.38;99589.73;420294;1301;108608;-39
2022/11/14 03:34:33;;;;;;;54.30;25.90;;;;;;;3.72;91.45;99579.56;420226;1301;97519;-40
2022/11/14 03:44:38;;;;;;;60.90;29.30;;;;;;;3.74;91.61;99573.19;420175;1300;112926;-41
2022/11/14 03:54:45;;;;;;;33.70;18.10;;;;;;;3.79;91.73;99564.95;420253;1303;109197;-41
2022/11/14 04:04:53;;;;;;;34.10;17.70;;;;;;;3.85;91.80;99561.73;420229;1292;97701;-40
2022/11/14 04:14:59;;;;;;;32.30;18.90;;;;;;;3.97;91.87;99564.39;420327;1303;107573;-41
2022/11/14 04:35:14;;;;;;;24.40;14.80;;;;;;;3.95;91.65;99556.25;420290;1304;110594;-40
2022/11/14 04:45:21;;;;;;;27.90;15.70;;;;;;;3.92;91.75;99550.21;420186;1302;107219;-41
2022/11/14 04:55:28;;;;;;;21.80;13.50;;;;;;;3.91;91.75;99551.81;420316;1301;97933;-41
2022/11/14 05:05:35;;;;;;;28.20;16.80;;;;;;;3.89;91.80;99540.04;420176;1292;108299;-40
2022/11/14 05:15:48;;;;;;;21.80;13.70;;;;;;;3.97;91.94;99533.33;420289;1305;97365;-41
2022/11/14 05:25:59;;;;;;;22.80;12.70;;;;;;;3.93;91.87;99536.64;420145;1289;108890;-41
2022/11/14 05:36:09;;;;;;;22.00;12.40;;;;;;;3.98;91.97;99543.95;420144;1298;107867;-40
2022/11/14 05:46:17;;;;;;;23.40;12.60;;;;;;;3.91;92.08;99538.27;420282;1302;97915;-40
2022/11/14 05:56:24;;;;;;;25.30;14.50;;;;;;;3.83;92.15;99540.99;420149;1302;108880;-40
2022/11/14 06:06:31;;;;;;;24.70;13.40;;;;;;;3.82;92.40;99546.55;420333;1308;97906;-41
2022/11/14 06:16:39;;;;;;;23.80;13.10;;;;;;;3.85;92.48;99549.17;420096;1301;111679;-42
2022/11/14 06:26:46;;;;;;;26.50;15.20;;;;;;;3.88;92.39;99550.21;420241;1303;108106;-39
2022/11/14 06:36:53;;;;;;;23.30;14.40;;;;;;;3.85;92.63;99561.05;420274;1292;96935;-40
2022/11/14 06:47:00;;;;;;;25.70;14.10;;;;;;;3.88;92.65;99552.83;420144;1303;107950;-40
2022/11/14 06:57:07;;;;;;;31.20;17.60;;;;;;;3.95;92.51;99544.93;420258;1298;96694;-40
2022/11/14 07:07:14;;;;;;;26.20;14.60;;;;;;;4.05;92.65;99544.86;420165;1302;109526;-39
2022/11/14 07:17:22;;;;;;;29.20;16.10;;;;;;;4.12;92.54;99542.21;419989;1302;108353;-41
2022/11/14 07:27:35;;;;;;;24.50;13.20;;;;;;;4.08;92.60;99533.77;420058;1303;97565;-40
2022/11/14 07:37:43;;;;;;;24.80;14.00;;;;;;;4.10;92.60;99528.48;420251;1292;108222;-41
2022/11/14 07:47:50;;;;;;;28.30;16.00;;;;;;;4.08;92.42;99512.19;420439;1302;97905;-40
2022/11/14 07:57:59;;;;;;;29.80;15.60;;;;;;;4.11;92.83;99516.50;420324;1305;110049;-39
2022/11/14 08:08:06;;;;;;;35.90;19.10;;;;;;;4.21;92.87;99505.83;420496;1299;107454;-40
2022/11/14 08:18:13;;;;;;;36.00;18.60;;;;;;;4.32;93.12;99509.73;420523;1301;97902;-40
2022/11/14 08:28:20;;;;;;;30.90;18.60;;;;;;;4.25;93.25;99500.46;420466;1301;108264;-40
2022/11/14 08:38:27;;;;;;;40.30;21.50;;;;;;;4.33;93.23;99496.14;420432;1304;96695;-40
2022/11/14 08:48:35;;;;;;;41.40;21.70;;;;;;;4.54;93.52;99489.96;420602;1302;111868;-40
2022/11/14 08:58:43;;;;;;;43.10;24.10;;;;;;;4.85;93.49;99491.40;420518;1302;108364;-40
2022/11/14 09:08:50;;;;;;;52.00;28.00;;;;;;;4.98;93.12;99485.04;420392;1302;97143;-39
2022/11/14 09:18:57;;;;;;;55.80;28.20;;;;;;;5.15;93.23;99484.34;420751;1297;108434;-39
2022/11/14 09:29:05;;;;;;;44.90;23.30;;;;;;;5.28;93.02;99470.30;420418;1305;97876;-40
2022/11/14 09:39:12;;;;;;;36.80;24.00;;;;;;;5.33;93.13;99468.09;420328;1303;110761;-39
2022/11/14 09:49:20;;;;;;;30.00;18.80;;;;;;;5.39;92.80;99456.77;420536;1302;108632;-40
2022/11/14 09:59:29;;;;;;;41.60;21.80;;;;;;;5.37;92.89;99452.74;420454;1305;97934;-40
2022/11/14 10:09:41;;;;;;;36.90;24.20;;;;;;;5.54;93.06;99433.26;420398;1301;108381;-40
2022/11/14 10:19:54;;;;;;;36.60;21.20;;;;;;;5.78;92.87;99423.90;420321;1298;97892;-40
2022/11/14 10:30:03;;;;;;;39.30;22.90;;;;;;;5.88;92.74;99416.98;419946;1293;109775;-40
2022/11/14 10:40:14;;;;;;;42.70;24.60;;;;;;;5.97;92.61;99412.17;419933;1287;107128;-40
2022/11/14 10:50:21;;;;;;;39.00;23.80;;;;;;;6.09;92.70;99402.92;419612;1302;98007;-40
2022/11/14 11:00:28;;;;;;;39.50;23.10;;;;;;;6.26;92.65;99387.30;420078;1298;107939;-41
2022/11/14 11:21:04;;;;;;;31.40;22.00;;;;;;;7.05;92.60;99358.31;420086;1301;110693;-40
2022/11/14 11:31:12;;;;;;;33.10;20.20;;;;;;;7.43;92.49;99335.27;420023;1308;108206;-40
2022/11/14 11:41:17;;;;;;;35.10;21.00;;;;;;;7.80;92.26;99325.16;420183;1294;98548;-41
2022/11/14 11:51:37;;;;;;;33.90;19.70;;;;;;;8.13;91.80;99309.56;420154;1301;108717;-40
2022/11/14 12:01:44;;;;;;;32.20;19.40;;;;;;;8.25;91.49;99304.92;420050;1302;97883;-41
2022/11/14 12:11:57;;;;;;;27.20;16.40;;;;;;;8.34;90.92;99296.92;420158;1300;111660;-40
2022/11/14 12:22:26;;;;;;;24.00;14.80;;;;;;;8.45;90.76;99284.74;420184;1307;108294;-41
2022/11/14 12:32:38;;;;;;;23.40;15.50;;;;;;;8.48;90.14;99284.83;419999;1309;97955;-41
2022/11/14 12:42:46;;;;;;;32.60;18.00;;;;;;;8.51;89.62;99271.95;420045;1302;106798;-40
2022/11/14 12:52:53;;;;;;;23.40;15.10;;;;;;;8.48;88.69;99264.67;420106;1294;97501;-40
2022/11/14 13:23:56;;;;;;;28.70;16.00;;;;;;;8.35;88.43;99247.71;420121;1294;97906;-41
2022/11/14 13:34:29;;;;;;;28.80;16.70;;;;;;;8.34;88.32;99238.42;420156;1295;106427;-40
2022/11/14 13:45:11;;;;;;;38.20;21.40;;;;;;;8.24;88.16;99225.48;420212;1301;97992;-40
2022/11/14 14:05:27;;;;;;;41.80;22.80;;;;;;;7.98;87.99;99200.30;420037;1301;107921;-42
2022/11/14 14:35:55;;;;;;;51.10;27.10;;;;;;;7.59;87.88;99185.08;420114;1295;97490;-40
2022/11/14 14:46:01;;;;;;;59.80;31.10;;;;;;;7.27;87.67;99177.27;420103;1301;110225;-40
2022/11/14 14:56:19;;;;;;;56.90;28.00;;;;;;;6.89;87.72;99169.13;419985;1302;109594;-41
2022/11/14 15:16:33;;;;;;;58.50;30.20;;;;;;;6.32;88.04;99160.09;420058;1301;107187;-40
2022/11/14 15:26:39;;;;;;;58.70;27.30;;;;;;;6.09;88.16;99155.05;420229;1301;97911;-39
2022/11/14 15:37:16;;;;;;;59.70;29.00;;;;;;;5.88;88.17;99156.27;420202;1298;108996;-40
2022/11/14 15:47:22;;;;;;;60.10;28.20;;;;;;;5.69;88.37;99148.02;420084;1294;107748;-41
2022/11/14 15:57:31;;;;;;;74.00;34.70;;;;;;;5.56;88.38;99151.91;420072;1301;97885;-40
2022/11/14 16:07:38;;;;;;;86.90;35.00;;;;;;;5.44;88.60;99147.92;420096;1295;107393;-39
2022/11/14 16:17:47;;;;;;;96.50;43.50;;;;;;;5.39;88.86;99143.98;420212;1301;97221;-40
2022/11/14 16:27:55;;;;;;;90.30;38.40;;;;;;;5.37;89.05;99143.29;420199;1292;111512;-39
2022/11/14 16:38:02;;;;;;;95.10;40.60;;;;;;;5.32;89.08;99138.15;419947;1301;108687;-40
2022/11/14 16:48:09;;;;;;;86.50;41.10;;;;;;;5.30;89.31;99137.20;420082;1301;97570;-41
2022/11/14 16:58:16;;;;;;;113.80;53.80;;;;;;;5.29;89.33;99134.52;420116;1301;108251;-40
2022/11/14 17:08:24;;;;;;;82.50;41.00;;;;;;;5.24;89.46;99131.45;420124;1301;98062;-40
2022/11/14 17:18:31;;;;;;;73.00;35.00;;;;;;;5.16;89.53;99129.27;420180;1301;110207;-41
2022/11/14 17:28:45;;;;;;;74.20;38.50;;;;;;;5.14;89.70;99112.03;420075;1301;108451;-40
2022/11/14 17:38:52;;;;;;;76.60;38.90;;;;;;;5.05;89.78;99108.95;420166;1297;97868;-41
2022/11/14 17:48:58;;;;;;;77.10;38.00;;;;;;;5.02;89.92;99101.61;420117;1301;107603;-41
2022/11/14 17:59:06;;;;;;;78.10;38.70;;;;;;;5.03;90.01;99097.14;420144;1297;97930;-42
2022/11/14 18:09:13;;;;;;;70.80;34.90;;;;;;;4.94;89.97;99087.63;420103;1294;109844;-40
2022/11/14 18:19:20;;;;;;;59.80;32.40;;;;;;;4.85;90.16;99091.58;420099;1297;108234;-40
2022/11/14 18:29:29;;;;;;;56.40;31.20;;;;;;;4.70;90.23;99090.02;420109;1294;96622;-41
2022/11/14 18:39:37;;;;;;;44.10;25.60;;;;;;;4.57;90.41;99083.79;419894;1301;107236;-40
2022/11/14 18:59:51;;;;;;;58.40;29.50;;;;;;;4.53;90.53;99068.63;420037;1301;110773;-40
2022/11/14 19:09:58;;;;;;;51.70;28.50;;;;;;;4.48;90.61;99063.07;420094;1301;111643;-40
2022/11/14 19:20:05;;;;;;;64.60;32.40;;;;;;;4.45;90.80;99062.18;420101;1301;97084;-39
2022/11/14 19:30:20;;;;;;;51.10;27.80;;;;;;;4.46;90.89;99058.46;420161;1294;108396;-40
2022/11/14 19:40:28;;;;;;;49.10;28.00;;;;;;;4.47;90.77;99055.14;420212;1301;97918;-40
2022/11/14 19:50:35;;;;;;;50.60;29.80;;;;;;;4.45;90.79;99047.42;420088;1298;111767;-41
2022/11/14 20:00:43;;;;;;;61.30;31.00;;;;;;;4.40;90.83;99045.58;420115;1294;108464;-39
2022/11/14 20:10:57;;;;;;;52.70;28.30;;;;;;;4.34;90.91;99045.38;420114;1301;97197;-39
2022/11/14 20:21:02;;;;;;;52.70;29.60;;;;;;;4.22;90.97;99035.54;420083;1301;106906;-39
2022/11/14 20:31:14;;;;;;;51.10;31.30;;;;;;;4.16;91.06;99035.61;420149;1298;97529;-40
2022/11/14 20:41:21;;;;;;;57.50;31.40;;;;;;;4.13;91.05;99024.21;420124;1302;112733;-40
2022/11/14 20:51:28;;;;;;;59.60;35.30;;;;;;;4.24;91.34;99024.15;420295;1286;107830;-41
2022/11/14 21:01:36;;;;;;;54.20;29.80;;;;;;;4.23;91.09;99017.09;420116;1301;97454;-40
2022/11/14 21:11:49;;;;;;;51.90;29.90;;;;;;;4.21;90.93;99012.52;420337;1292;109047;-41
2022/11/14 21:21:56;;;;;;;52.30;29.80;;;;;;;4.19;91.15;99009.95;420153;1301;97879;-42
2022/11/14 21:32:04;;;;;;;52.80;30.00;;;;;;;4.15;91.16;99002.41;420259;1298;111040;-40
2022/11/14 21:42:11;;;;;;;47.10;26.70;;;;;;;4.14;91.42;99001.80;420107;1294;108939;-39
2022/11/14 21:52:24;;;;;;;42.50;24.50;;;;;;;4.14;91.28;99004.81;420155;1298;96614;-40
2022/11/14 22:12:57;;;;;;;61.70;32.20;;;;;;;4.08;91.34;98988.55;420270;1305;97184;-39
2022/11/14 22:23:04;;;;;;;62.10;33.70;;;;;;;3.96;91.60;98979.67;420497;1301;110874;-40
2022/11/14 22:33:11;;;;;;;65.10;32.90;;;;;;;3.89;91.68;98975.75;420170;1294;108364;-40
2022/11/14 22:43:21;;;;;;;62.00;33.10;;;;;;;3.81;91.70;98972.48;420191;1301;97991;-40
2022/11/14 22:53:27;;;;;;;64.40;34.70;;;;;;;3.67;91.80;98967.64;420213;1295;107135;-39
2022/11/14 23:03:35;;;;;;;50.50;28.00;;;;;;;3.54;91.98;98957.66;420230;1295;98277;-40
2022/11/14 23:13:45;;;;;;;57.80;29.40;;;;;;;3.41;92.06;98944.08;419938;1302;392788;-38
2022/11/14 23:23:52;;;;;;;54.90;30.20;;;;;;;3.29;92.30;98934.79;420138;1301;107874;-40
2022/11/14 23:33:59;;;;;;;57.30;30.50;;;;;;;3.21;92.33;98928.55;420303;1302;96689;-40
2022/11/14 23:44:05;;;;;;;47.50;25.60;;;;;;;3.16;92.43;98914.20;420034;1301;107507;-40
2022/11/14 23:54:12;;;;;;;40.20;23.50;;;;;;;3.13;92.44;98904.55;420352;1300;97880;-40
